Kings Island, Ohio
Current Conditions -  °F | °C
As of 8:53 AM on Sunday 25 Jan 2015 (Local Time) from KHAO Reporting Station
Overcast Overcast  
Wind Chill: 36°   Ceiling: 8000
Heat Index: 36°   Visibility: 7mi
Dew Point: 31°   Wind: 0mph
Humidity: 82%   Direction: NA
Pressure: 29.73"   Gusts: NA
Location:  39.3564°N, 84.2478°W
Report Text: KHAO 251353Z AUTO 00000KT 7SM BKN080 OVC100 02/M01 A2973 RMK AO2 SLP074 T00221006
Loading
Personal Weather Stations






























Interactive Weather Map New forecast layout! Learn more

10-Day Weather Forecast

Advertisements
Track Severe Weather on mobile